Great Yarmouth, United Kingdom
Current Conditions -  °F | °C
As of 12:50 PM on Tuesday 21 Oct 2014 (Local Time) from EGSD Reporting Station
Scattered Clouds Scattered Clouds  
Wind Chill: 55°   Ceiling: Unl
Heat Index: 55°   Visibility: 6mi
Dew Point: 46°   Wind: 30mph
Humidity: 72%   Direction: 270°W
Pressure: 29.5"   Gusts: 43mph
Location:  52.61°N, 1.73°E
Report Text: EGSD 211150Z 27026G37KT 9999 SCT020 13/08 Q0999
Loading
Personal Weather Stations






























Interactive Weather Map
Tropical Storm Tracking
New forecast layout! Learn more

10-Day Weather Forecast

Advertisements
Track Severe Weather on mobile